Terminal Aerodrome Forecast
Issued by NWS

Home | Current Version | Previous Version | Text Only | Print | Product List | Glossary On
Versions: 1 2 3 4 5 6 7 8 9 10 11 12 13 14 15 16 17 18 19 20 21 22 23 24 25 26 27 28 29 30 31 32 33 34 35 36 37 38 39 40 41
000
FTUS46 KPQR 221401 AAA
TAFONP
TAF AMD
KONP 221401Z 2214/2312 31004KT 6SM BR SCT008 BKN040 BKN070
      TEMPO 2214/2217 4SM BR BKN008 BKN040
     FM221800 VRB03KT P6SM SCT010 BKN045 OVC100
     FM230300 13004KT 4SM BR BKN006 OVC100=

USA.gov is the U.S. government's official web portal to all federal, state and local government web resources and services.